createdAt,value
2019-01-10T00:01:58.204Z,102055.61
2019-01-10T00:04:26.026Z,102055.61
2019-01-10T00:06:53.802Z,102055.17
2019-01-10T00:09:21.653Z,102054.69
2019-01-10T00:11:49.862Z,102059.20
2019-01-10T00:14:18.006Z,102057.41
2019-01-10T00:16:45.776Z,102060.55
2019-01-10T00:19:13.647Z,102059.73
2019-01-10T00:21:41.717Z,102062.89
2019-01-10T00:24:09.485Z,102071.95
2019-01-10T00:26:37.589Z,102069.25
2019-01-10T00:29:05.380Z,102076.01
2019-01-10T00:31:33.174Z,102082.77
2019-01-10T00:34:01.080Z,102086.38
2019-01-10T00:36:28.909Z,102090.05
2019-01-10T00:38:56.710Z,102096.36
2019-01-10T00:41:24.723Z,102099.05
2019-01-10T00:43:52.705Z,102085.55
2019-01-10T00:46:21.279Z,102087.41
2019-01-10T00:48:49.420Z,102091.02
2019-01-10T00:51:20.021Z,102090.06
2019-01-10T00:53:48.005Z,102093.28
2019-01-10T00:56:16.351Z,102087.47
2019-01-10T00:58:44.928Z,102097.33
2019-01-10T01:01:12.951Z,102102.30
2019-01-10T01:03:40.781Z,102093.78
2019-01-10T01:06:08.581Z,102096.92
2019-01-10T01:08:36.447Z,102106.37
2019-01-10T01:11:04.265Z,102104.59
2019-01-10T01:13:32.025Z,102105.48
2019-01-10T01:15:59.820Z,102107.30
2019-01-10T01:18:27.600Z,102096.61
2019-01-10T01:20:55.439Z,102110.00
2019-01-10T01:23:23.239Z,102113.65
2019-01-10T01:25:51.030Z,102119.44
2019-01-10T01:28:19.213Z,102128.45
2019-01-10T01:30:47.284Z,102128.00
2019-01-10T01:33:15.404Z,102133.41
2019-01-10T01:35:43.289Z,102132.55
2019-01-10T01:38:11.290Z,102136.60
2019-01-10T01:40:39.051Z,102148.27
2019-01-10T01:43:07.856Z,102144.70
2019-01-10T01:45:35.945Z,102143.38
2019-01-10T01:48:03.824Z,102130.44
2019-01-10T01:50:31.897Z,102135.84
2019-01-10T01:52:59.945Z,102136.34
2019-01-10T01:55:27.772Z,102141.31
2019-01-10T01:57:55.569Z,102146.26
2019-01-10T02:00:23.710Z,102142.64
2019-01-10T02:02:51.469Z,102106.17
2019-01-10T02:05:19.233Z,102147.10
2019-01-10T02:07:47.179Z,102161.51
2019-01-10T02:10:18.903Z,102157.91
2019-01-10T02:12:46.744Z,102167.42
2019-01-10T02:15:14.552Z,102166.91
2019-01-10T02:17:48.827Z,102161.18
2019-01-10T02:20:12.121Z,102171.02
2019-01-10T02:22:40.567Z,102174.12
2019-01-10T02:25:08.741Z,102176.30
2019-01-10T02:27:36.534Z,102181.25
2019-01-10T02:30:05.683Z,102162.16
2019-01-10T02:32:34.848Z,102180.31
2019-01-10T02:35:02.694Z,102183.00
2019-01-10T02:37:30.901Z,102194.31
2019-01-10T02:39:58.732Z,102188.01
2019-01-10T02:42:26.489Z,102199.66
2019-01-10T02:44:54.598Z,102196.07
2019-01-10T02:47:22.813Z,102199.20
2019-01-10T02:49:50.581Z,102190.25
2019-01-10T02:52:18.666Z,102197.42
2019-01-10T02:54:46.629Z,102200.13
2019-01-10T02:57:14.511Z,102201.52
2019-01-10T02:59:42.278Z,102196.97
2019-01-10T03:02:10.517Z,102197.02
2019-01-10T03:04:38.705Z,102192.96
2019-01-10T03:07:06.774Z,102188.48
2019-01-10T03:09:34.681Z,102192.58
2019-01-10T03:12:02.521Z,102193.98
2019-01-10T03:14:30.379Z,102189.95
2019-01-10T03:16:58.174Z,102192.64
2019-01-10T03:19:26.173Z,102190.91
2019-01-10T03:21:54.359Z,102185.50
2019-01-10T03:24:22.186Z,102180.05
2019-01-10T03:26:50.711Z,102182.30
2019-01-10T03:29:18.474Z,102185.00
2019-01-10T03:31:46.571Z,102187.24
2019-01-10T03:34:14.470Z,102189.95
2019-01-10T03:36:42.265Z,102194.78
2019-01-10T03:39:10.351Z,102192.06
2019-01-10T03:41:38.173Z,102190.71
2019-01-10T03:44:05.956Z,102191.17
2019-01-10T03:46:34.060Z,102193.41
2019-01-10T03:49:01.831Z,102184.41
2019-01-10T03:51:30.030Z,102185.77
2019-01-10T03:53:58.161Z,102180.36
2019-01-10T03:56:26.441Z,102181.73
2019-01-10T03:58:54.268Z,102175.07
2019-01-10T04:01:22.330Z,102172.82
2019-01-10T04:03:50.089Z,102177.77
2019-01-10T04:06:17.932Z,102177.77
2019-01-10T04:08:45.679Z,102177.72
2019-01-10T04:11:13.501Z,102176.42
2019-01-10T04:13:41.931Z,102177.33
2019-01-10T04:16:09.733Z,102171.92
2019-01-10T04:18:37.863Z,102174.64
2019-01-10T04:21:16.648Z,102169.23
2019-01-10T04:23:38.539Z,102172.43
2019-01-10T04:26:06.317Z,102173.78
2019-01-10T04:28:34.086Z,102173.78
2019-01-10T04:31:01.866Z,102171.09
2019-01-10T04:33:29.816Z,102169.74
2019-01-10T04:35:57.608Z,102171.98
2019-01-10T04:38:25.744Z,102173.80
2019-01-10T04:40:53.918Z,102171.14
2019-01-10T04:43:21.879Z,102175.20
2019-01-10T04:45:49.664Z,102179.25
2019-01-10T04:48:17.521Z,102179.27
2019-01-10T04:50:45.303Z,102180.21
2019-01-10T04:53:14.522Z,102176.17
2019-01-10T04:55:42.582Z,102181.05
2019-01-10T04:58:11.161Z,102183.31
2019-01-10T05:00:39.017Z,102179.66
2019-01-10T05:03:06.870Z,102184.59
2019-01-10T05:05:34.638Z,102185.89
2019-01-10T05:08:02.442Z,102182.73
2019-01-10T05:10:30.254Z,102185.00
2019-01-10T05:12:58.124Z,102185.45
2019-01-10T05:15:26.270Z,102183.19
2019-01-10T05:17:55.261Z,102186.84
2019-01-10T05:20:23.263Z,102183.30
2019-01-10T05:22:51.148Z,102189.05
2019-01-10T05:25:19.840Z,102187.30
2019-01-10T05:27:51.585Z,102194.05
2019-01-10T05:30:20.805Z,102188.31
2019-01-10T05:32:49.197Z,102193.66
2019-01-10T05:35:16.984Z,102198.62
2019-01-10T05:37:44.847Z,102195.53
2019-01-10T05:40:13.157Z,102192.84
2019-01-10T05:42:41.063Z,102196.89
2019-01-10T05:45:11.021Z,102202.28
2019-01-10T05:47:39.129Z,102201.19
2019-01-10T05:50:08.281Z,102204.56
2019-01-10T05:52:36.118Z,102203.64
2019-01-10T05:55:04.323Z,102199.27
2019-01-10T05:57:34.741Z,102160.64
2019-01-10T06:00:25.028Z,102204.16
2019-01-10T06:02:53.889Z,102201.42
2019-01-10T06:05:21.757Z,102205.74
2019-01-10T06:07:49.974Z,102200.17
2019-01-10T06:10:19.054Z,102201.77
2019-01-10T06:12:46.921Z,102206.06
2019-01-10T06:15:15.061Z,102211.55
2019-01-10T06:17:43.139Z,102215.68
2019-01-10T06:20:11.897Z,102220.25
2019-01-10T06:22:39.723Z,102220.18
2019-01-10T06:25:07.938Z,102219.84
2019-01-10T06:27:36.526Z,102214.95
2019-01-10T06:30:04.997Z,102220.75
2019-01-10T06:32:33.138Z,102226.48
2019-01-10T06:35:37.546Z,102220.56
2019-01-10T06:38:06.660Z,102227.72
2019-01-10T06:40:34.700Z,102228.34
2019-01-10T06:43:02.621Z,102231.38
2019-01-10T06:45:30.614Z,102239.51
2019-01-10T06:47:58.476Z,102240.23
2019-01-10T06:50:28.425Z,102239.30
2019-01-10T06:52:56.528Z,102244.84
2019-01-10T06:55:24.773Z,102237.31
2019-01-10T06:57:52.987Z,102242.33
2019-01-10T07:00:24.642Z,102242.72
2019-01-10T07:02:52.554Z,102267.70
2019-01-10T07:05:20.403Z,102259.52
2019-01-10T07:07:56.311Z,102254.67
2019-01-10T07:10:19.608Z,102252.18
2019-01-10T07:12:47.641Z,102256.03
2019-01-10T07:15:15.411Z,102252.53
2019-01-10T07:17:43.314Z,102253.63
2019-01-10T07:20:11.913Z,102248.98
2019-01-10T07:22:43.076Z,102248.42
2019-01-10T07:25:11.388Z,102254.17
2019-01-10T07:27:39.709Z,102260.86
2019-01-10T07:30:08.408Z,102254.98
2019-01-10T07:32:36.276Z,102260.34
2019-01-10T07:35:06.429Z,102260.80
2019-01-10T07:37:34.472Z,102268.91
2019-01-10T07:40:02.771Z,102268.84
2019-01-10T07:42:33.544Z,102273.70
2019-01-10T07:45:03.546Z,102273.77
2019-01-10T07:47:47.287Z,102277.44
2019-01-10T07:50:15.497Z,102270.28
2019-01-10T07:52:43.412Z,102287.34
2019-01-10T07:55:11.210Z,102279.85
2019-01-10T07:57:39.001Z,102285.58
2019-01-10T08:00:07.073Z,102283.70
2019-01-10T08:02:35.361Z,102290.87
2019-01-10T08:05:03.324Z,102290.87
2019-01-10T08:07:31.541Z,102291.77
2019-01-10T08:09:59.946Z,102291.32
2019-01-10T08:12:27.845Z,102285.51
2019-01-10T08:14:56.083Z,102289.50
2019-01-10T08:17:24.010Z,102290.16
2019-01-10T08:19:51.842Z,102292.74
2019-01-10T08:22:27.509Z,102291.44
2019-01-10T08:24:49.459Z,102298.08
2019-01-10T08:27:17.714Z,102297.97
2019-01-10T08:29:46.023Z,102300.98
2019-01-10T08:32:14.066Z,102302.66
2019-01-10T08:34:42.182Z,102296.66
2019-01-10T08:37:12.168Z,102296.59
2019-01-10T08:39:40.108Z,102310.56
2019-01-10T08:42:07.986Z,102301.94
2019-01-10T08:44:35.859Z,102306.88
2019-01-10T08:47:03.721Z,102296.51
2019-01-10T08:49:31.649Z,102307.89
2019-01-10T08:51:59.419Z,102307.81
2019-01-10T08:54:27.208Z,102311.41
2019-01-10T08:56:55.486Z,102300.80
2019-01-10T08:59:23.365Z,102315.72
2019-01-10T09:01:51.262Z,102316.25
2019-01-10T09:04:19.048Z,102317.02
2019-01-10T09:06:46.842Z,102321.06
2019-01-10T09:09:14.723Z,102321.66
2019-01-10T09:11:42.651Z,102322.62
2019-01-10T09:14:10.564Z,102325.32
2019-01-10T09:16:38.433Z,102329.02
2019-01-10T09:19:06.337Z,102328.75
2019-01-10T09:21:34.744Z,102313.89
2019-01-10T09:24:03.022Z,102332.69
2019-01-10T09:26:37.808Z,102342.74
2019-01-10T09:29:06.276Z,102342.98
2019-01-10T09:31:36.771Z,102339.34
2019-01-10T09:34:05.966Z,102342.44
2019-01-10T09:36:36.961Z,102345.23
2019-01-10T09:39:07.785Z,102344.53
2019-01-10T09:41:40.495Z,102349.16
2019-01-10T09:44:08.376Z,102347.80
2019-01-10T09:46:36.167Z,102341.89
2019-01-10T09:49:04.250Z,102340.80
2019-01-10T09:51:32.096Z,102340.91
2019-01-10T09:54:00.397Z,102347.04
2019-01-10T09:56:28.186Z,102351.55
2019-01-10T09:58:56.387Z,102354.33
2019-01-10T10:01:24.318Z,102352.22
2019-01-10T10:03:52.710Z,102360.47
2019-01-10T10:06:20.493Z,102356.52
2019-01-10T10:08:49.219Z,102359.01
2019-01-10T10:11:17.268Z,102355.41
2019-01-10T10:13:45.073Z,102347.47
2019-01-10T10:16:12.930Z,102347.47
2019-01-10T10:18:40.743Z,102349.73
2019-01-10T10:21:08.877Z,102347.80
2019-01-10T10:23:36.764Z,102351.03
2019-01-10T10:26:05.044Z,102345.95
2019-01-10T10:28:33.542Z,102346.13
2019-01-10T10:31:01.468Z,102347.75
2019-01-10T10:33:29.347Z,102344.92
2019-01-10T10:35:57.204Z,102351.17
2019-01-10T10:38:25.746Z,102353.47
2019-01-10T10:40:53.594Z,102352.28
2019-01-10T10:43:21.561Z,102351.78
2019-01-10T10:45:49.601Z,102345.67
2019-01-10T10:48:17.474Z,102341.16
2019-01-10T10:50:45.353Z,102344.91
2019-01-10T10:53:14.093Z,102345.30
2019-01-10T10:55:42.030Z,102338.97
2019-01-10T10:58:09.884Z,102347.56
2019-01-10T11:00:37.747Z,102347.80
2019-01-10T11:03:05.596Z,102340.98
2019-01-10T11:05:33.732Z,102340.80
2019-01-10T11:08:01.871Z,102337.23
2019-01-10T11:10:29.671Z,102333.31
2019-01-10T11:12:57.768Z,102331.14
2019-01-10T11:15:25.732Z,102324.61
2019-01-10T11:17:53.826Z,102332.41
2019-01-10T11:20:22.552Z,102332.34
2019-01-10T11:22:52.999Z,102330.69
2019-01-10T11:25:22.887Z,102326.22
2019-01-10T11:27:50.796Z,102323.40
2019-01-10T11:30:19.615Z,102322.42
2019-01-10T11:32:47.456Z,102321.34
2019-01-10T11:35:15.974Z,102320.31
2019-01-10T11:37:43.978Z,102313.47
2019-01-10T11:40:12.944Z,102314.88
2019-01-10T11:42:40.856Z,102309.54
2019-01-10T11:45:09.780Z,102314.52
2019-01-10T11:47:37.658Z,102308.20
2019-01-10T11:50:06.113Z,102308.59
2019-01-10T11:52:33.981Z,102309.47
2019-01-10T11:55:01.851Z,102304.89
2019-01-10T11:57:29.970Z,102302.55
2019-01-10T11:59:58.303Z,102302.11
2019-01-10T12:02:26.174Z,102297.21
2019-01-10T12:04:54.322Z,102297.77
2019-01-10T12:07:22.289Z,102300.65
2019-01-10T12:09:50.120Z,102301.63
2019-01-10T12:12:17.967Z,102297.27
2019-01-10T12:14:46.109Z,102292.62
2019-01-10T12:17:13.958Z,102292.14
2019-01-10T12:19:42.021Z,102291.73
2019-01-10T12:22:09.820Z,102297.12
2019-01-10T12:24:37.677Z,102295.33
2019-01-10T12:27:05.869Z,102293.97
2019-01-10T12:29:36.323Z,102285.33
2019-01-10T12:32:03.882Z,102286.23
2019-01-10T12:34:31.854Z,102289.02
2019-01-10T12:37:00.488Z,102281.39
2019-01-10T12:39:29.073Z,102281.34
2019-01-10T12:41:57.359Z,102279.96
2019-01-10T12:44:25.310Z,102272.83
2019-01-10T12:46:53.406Z,102275.84
2019-01-10T12:49:21.201Z,102272.87
2019-01-10T12:51:48.978Z,102269.74
2019-01-10T12:54:17.415Z,102266.38
2019-01-10T12:56:45.177Z,102264.95
2019-01-10T12:59:13.044Z,102266.30
2019-01-10T13:01:41.074Z,102270.80
2019-01-10T13:04:08.917Z,102263.06
2019-01-10T13:06:38.088Z,102266.48
2019-01-10T13:09:07.235Z,102265.03
2019-01-10T13:11:35.328Z,102264.90
2019-01-10T13:14:05.427Z,102270.23
2019-01-10T13:16:33.707Z,102269.80
2019-01-10T13:19:01.558Z,102264.36
2019-01-10T13:21:41.827Z,102271.16
2019-01-10T13:24:09.951Z,102271.76
2019-01-10T13:26:37.869Z,102273.91
2019-01-10T13:29:05.949Z,102264.92
2019-01-10T13:31:35.142Z,102256.22
2019-01-10T13:34:03.379Z,102255.90
2019-01-10T13:36:31.717Z,102260.22
2019-01-10T13:38:59.575Z,102249.77
2019-01-10T13:41:28.029Z,102250.19
2019-01-10T13:43:56.097Z,102249.93
2019-01-10T13:46:24.320Z,102252.55
2019-01-10T13:48:52.266Z,102249.86
2019-01-10T13:51:20.610Z,102254.73
2019-01-10T13:53:48.866Z,102255.20
2019-01-10T13:56:19.473Z,102255.58
2019-01-10T13:58:47.305Z,102256.47
2019-01-10T14:01:15.167Z,102257.88
2019-01-10T14:03:43.193Z,102257.37
2019-01-10T14:06:11.069Z,102264.14
2019-01-10T14:11:05.776Z,102263.09
2019-01-10T14:13:33.574Z,102255.88
2019-01-10T14:16:01.471Z,102252.77
2019-01-10T14:18:29.320Z,102255.05
2019-01-10T14:20:57.565Z,102254.15
2019-01-10T14:23:25.500Z,102266.00
2019-01-10T14:25:53.269Z,102257.37
2019-01-10T14:28:21.247Z,102256.98
2019-01-10T14:30:49.175Z,102259.62
2019-01-10T14:33:17.066Z,102260.52
2019-01-10T14:35:44.942Z,102262.67
2019-01-10T14:38:12.942Z,102266.45
2019-01-10T14:40:41.544Z,102265.24
2019-01-10T14:43:09.326Z,102264.19
2019-01-10T14:45:38.399Z,102267.73
2019-01-10T14:48:06.689Z,102269.92
2019-01-10T14:50:34.552Z,102267.67
2019-01-10T14:53:02.380Z,102270.39
2019-01-10T14:55:30.376Z,102271.42
2019-01-10T14:57:58.725Z,102268.23
2019-01-10T15:00:26.716Z,102268.00
2019-01-10T15:02:55.084Z,102264.64
2019-01-10T15:05:23.448Z,102267.51
2019-01-10T15:07:51.415Z,102263.30
2019-01-10T15:10:19.537Z,102260.84
2019-01-10T15:12:47.617Z,102261.75
2019-01-10T15:15:16.428Z,102265.34
2019-01-10T15:17:44.311Z,102261.35
2019-01-10T15:20:13.548Z,102262.27
2019-01-10T15:22:41.588Z,102262.34
2019-01-10T15:25:09.693Z,102265.72
2019-01-10T15:27:37.639Z,102263.72
2019-01-10T15:30:07.185Z,102263.26
2019-01-10T15:32:35.033Z,102273.93
2019-01-10T15:35:02.798Z,102274.48
2019-01-10T15:37:30.787Z,102233.75
2019-01-10T15:40:00.741Z,102260.33
2019-01-10T15:42:28.558Z,102256.65
2019-01-10T15:44:56.370Z,102256.52
2019-01-10T15:47:24.161Z,102252.00
2019-01-10T15:49:51.954Z,102253.61
2019-01-10T15:52:19.921Z,102250.31
2019-01-10T15:54:48.374Z,102249.14
2019-01-10T15:57:16.181Z,102245.62
2019-01-10T15:59:44.025Z,102249.55
2019-01-10T16:02:11.890Z,102242.30
2019-01-10T16:04:40.051Z,102245.56
2019-01-10T16:07:07.962Z,102245.89
2019-01-10T16:09:35.967Z,102244.03
2019-01-10T16:12:03.736Z,102235.40
2019-01-10T16:14:32.401Z,102235.00
2019-01-10T16:17:00.205Z,102232.91
2019-01-10T16:19:28.379Z,102226.08
2019-01-10T16:21:56.795Z,102216.53
2019-01-10T16:24:24.746Z,102228.17
2019-01-10T16:26:52.921Z,102223.07
2019-01-10T16:29:20.845Z,102225.27
2019-01-10T16:31:48.600Z,102235.10
2019-01-10T16:34:16.430Z,102229.17
2019-01-10T16:36:44.559Z,102234.13
2019-01-10T16:39:12.654Z,102236.78
2019-01-10T16:41:40.548Z,102223.73
2019-01-10T16:44:08.461Z,102224.98
2019-01-10T16:46:36.216Z,102226.31
2019-01-10T16:49:04.122Z,102219.56
2019-01-10T16:51:32.686Z,102214.13
2019-01-10T16:54:01.036Z,102219.63
2019-01-10T16:56:29.190Z,102220.54
2019-01-10T16:58:57.024Z,102222.84
2019-01-10T17:01:25.051Z,102210.28
2019-01-10T17:03:54.115Z,102212.11
2019-01-10T17:06:22.077Z,102216.23
2019-01-10T17:08:49.901Z,102219.84
2019-01-10T17:11:18.324Z,102215.79
2019-01-10T17:13:46.373Z,102219.70
2019-01-10T17:22:42.648Z,102216.63
2019-01-10T17:25:10.594Z,102220.28
2019-01-10T17:27:38.898Z,102209.94
2019-01-10T17:30:08.516Z,102213.95
2019-01-10T17:32:36.297Z,102203.15
2019-01-10T17:35:04.822Z,102204.51
2019-01-10T17:37:32.721Z,102205.27
2019-01-10T17:40:01.651Z,102204.30
2019-01-10T17:42:30.223Z,102205.57
2019-01-10T17:44:59.369Z,102199.63
2019-01-10T17:47:27.304Z,102206.36
2019-01-10T17:49:59.718Z,102203.66
2019-01-10T17:52:27.805Z,102195.53
2019-01-10T17:54:55.820Z,102200.76
2019-01-10T17:57:23.846Z,102204.95
2019-01-10T17:59:51.639Z,102199.47
2019-01-10T18:02:19.433Z,102202.09
2019-01-10T18:04:47.793Z,102198.94
2019-01-10T18:07:16.390Z,102204.71
2019-01-10T18:09:44.752Z,102202.33
2019-01-10T18:12:13.008Z,102194.56
2019-01-10T18:14:40.819Z,102198.11
2019-01-10T18:17:09.125Z,102195.25
2019-01-10T18:19:37.517Z,102194.12
2019-01-10T18:22:05.398Z,102190.35
2019-01-10T18:24:33.244Z,102190.25
2019-01-10T18:27:02.072Z,102181.42
2019-01-10T18:29:33.331Z,102186.30
2019-01-10T18:32:02.194Z,102184.95
2019-01-10T18:34:30.102Z,102190.82
2019-01-10T18:36:57.946Z,102199.97
2019-01-10T18:39:25.817Z,102195.97
2019-01-10T18:41:53.577Z,102198.66
2019-01-10T18:44:22.028Z,102201.72
2019-01-10T18:46:50.285Z,102208.03
2019-01-10T18:49:18.346Z,102201.31
2019-01-10T18:51:49.052Z,102205.70
2019-01-10T18:54:17.258Z,102202.01
2019-01-10T18:56:45.849Z,102198.19
2019-01-10T18:59:13.987Z,102202.67
2019-01-10T19:01:42.082Z,102196.62
2019-01-10T19:04:10.403Z,102192.53
2019-01-10T19:06:38.208Z,102192.02
2019-01-10T19:09:07.624Z,102192.86
2019-01-10T19:11:37.444Z,102199.61
2019-01-10T19:14:06.173Z,102188.32
2019-01-10T19:16:34.833Z,102196.84
2019-01-10T19:19:02.802Z,102193.22
2019-01-10T19:21:30.937Z,102199.53
2019-01-10T19:24:00.504Z,102193.66
2019-01-10T19:26:28.912Z,102197.13
2019-01-10T19:28:57.380Z,102201.64
2019-01-10T19:31:25.960Z,102198.03
2019-01-10T19:33:53.741Z,102201.17
2019-01-10T19:36:22.118Z,102206.91
2019-01-10T19:38:50.273Z,102206.39
2019-01-10T19:41:18.288Z,102206.88
2019-01-10T19:43:46.150Z,102213.66
2019-01-10T19:46:13.997Z,102203.77
2019-01-10T19:48:41.760Z,102201.88
2019-01-10T19:51:09.585Z,102202.94
2019-01-10T19:53:37.372Z,102198.33
2019-01-10T19:56:07.473Z,102202.39
2019-01-10T19:58:35.251Z,102202.41
2019-01-10T20:01:03.063Z,102205.63
2019-01-10T20:03:31.297Z,102199.81
2019-01-10T20:05:59.056Z,102197.52
2019-01-10T20:08:26.842Z,102192.53
2019-01-10T20:10:54.706Z,102192.08
2019-01-10T20:13:23.721Z,102187.53
2019-01-10T20:15:51.940Z,102188.86
2019-01-10T20:18:19.958Z,102186.59
2019-01-10T20:20:48.107Z,102178.47
2019-01-10T20:23:17.468Z,102183.44
2019-01-10T20:25:45.260Z,102171.64
2019-01-10T20:28:13.149Z,102173.97
2019-01-10T20:30:40.942Z,102168.56
2019-01-10T20:33:10.231Z,102180.30
2019-01-10T20:35:38.243Z,102174.89
2019-01-10T20:38:06.165Z,102173.13
2019-01-10T20:40:34.134Z,102167.73
2019-01-10T20:43:02.379Z,102155.11
2019-01-10T20:45:30.326Z,102156.40
2019-01-10T20:47:58.113Z,102159.60
2019-01-10T20:50:27.609Z,102154.64
2019-01-10T20:52:55.486Z,102158.70
2019-01-10T20:55:23.545Z,102158.92
2019-01-10T20:57:51.400Z,102161.50
2019-01-10T21:00:20.429Z,102160.88
2019-01-10T21:02:48.387Z,102156.92
2019-01-10T21:05:16.149Z,102158.05
2019-01-10T21:07:45.959Z,102158.63
2019-01-10T21:10:13.965Z,102156.89
2019-01-10T21:12:42.982Z,102153.70
2019-01-10T21:15:12.317Z,102154.48
2019-01-10T21:17:40.396Z,102161.58
2019-01-10T21:20:08.935Z,102153.22
2019-01-10T21:22:36.797Z,102148.28
2019-01-10T21:25:04.928Z,102147.91
2019-01-10T21:27:32.847Z,102144.73
2019-01-10T21:30:01.005Z,102144.33
2019-01-10T21:32:29.032Z,102145.25
2019-01-10T21:34:56.845Z,102141.22
2019-01-10T21:37:25.244Z,102136.75
2019-01-10T21:39:53.169Z,102134.07
2019-01-10T21:42:21.031Z,102130.06
2019-01-10T21:44:50.014Z,102131.87
2019-01-10T21:47:17.948Z,102125.05
2019-01-10T21:49:45.798Z,102125.11
2019-01-10T21:52:13.654Z,102123.78
2019-01-10T21:54:41.764Z,102119.70
2019-01-10T21:57:09.532Z,102114.75
2019-01-10T21:59:37.434Z,102116.10
2019-01-10T22:02:07.926Z,102112.09
2019-01-10T22:04:36.113Z,102106.67
2019-01-10T22:07:04.421Z,102096.83
2019-01-10T22:09:32.459Z,102097.62
2019-01-10T22:12:00.665Z,102094.48
2019-01-10T22:14:28.477Z,102090.86
2019-01-10T22:16:56.620Z,102088.70
2019-01-10T22:19:24.478Z,102087.11
2019-01-10T22:21:52.794Z,102084.11
2019-01-10T22:24:20.817Z,102077.45
2019-01-10T22:26:48.686Z,102080.61
2019-01-10T22:29:16.454Z,102078.85
2019-01-10T22:31:44.201Z,102077.52
2019-01-10T22:34:12.596Z,102075.79
2019-01-10T22:36:40.432Z,102074.44
2019-01-10T22:39:08.778Z,102077.58
2019-01-10T22:41:36.838Z,102064.79
2019-01-10T22:44:04.608Z,102075.23
2019-01-10T22:46:34.707Z,102069.85
2019-01-10T22:52:25.070Z,102055.34
2019-01-10T22:54:52.850Z,102054.19
2019-01-10T22:57:20.764Z,102051.13
2019-01-10T22:59:48.993Z,102038.52
2019-01-10T23:02:17.022Z,102016.05
2019-01-10T23:04:45.382Z,102034.63
2019-01-10T23:07:17.881Z,102030.16
2019-01-10T23:09:46.249Z,102031.59
2019-01-10T23:12:14.382Z,102026.70
2019-01-10T23:14:42.197Z,102029.41
2019-01-10T23:17:10.116Z,102021.75
2019-01-10T23:19:44.521Z,102007.04
2019-01-10T23:22:13.711Z,102006.95
2019-01-10T23:24:51.939Z,102007.88
2019-01-10T23:27:36.672Z,101992.54
2019-01-10T23:30:05.042Z,101987.57
2019-01-10T23:32:33.137Z,101989.84
2019-01-10T23:35:01.116Z,101983.14
2019-01-10T23:37:28.965Z,101985.92
2019-01-10T23:39:57.084Z,101983.22
2019-01-10T23:42:25.249Z,101976.48
2019-01-10T23:44:53.529Z,101973.38
2019-01-10T23:47:21.438Z,101970.23
2019-01-10T23:49:49.995Z,101963.93
2019-01-10T23:52:18.344Z,101955.45
2019-01-10T23:54:46.790Z,101953.20
2019-01-10T23:57:14.686Z,101952.36
2019-01-10T23:59:42.627Z,101947.84
